createdAt,value
2023-04-26T09:55:34.774Z,6.35
2023-04-26T09:58:10.644Z,4.45
2023-04-26T10:00:39.476Z,5.43
2023-04-26T10:03:08.883Z,1.75
2023-04-26T10:05:37.238Z,3.63
2023-04-26T10:08:05.984Z,4.97
2023-04-26T10:10:33.745Z,4.95
2023-04-26T10:13:01.175Z,5.05
2023-04-26T10:15:28.680Z,4.13
2023-04-26T10:17:58.873Z,3.77
2023-04-26T10:20:29.324Z,5.97
2023-04-26T10:23:04.009Z,5.63
2023-04-26T10:25:42.475Z,3.70
2023-04-26T10:28:09.431Z,2.70
2023-04-26T10:30:55.594Z,4.23
2023-04-26T10:33:23.919Z,5.65
2023-04-26T10:36:10.324Z,4.05
2023-04-26T10:38:39.860Z,3.42
2023-04-26T10:41:43.890Z,5.80
2023-04-26T10:44:42.332Z,5.50
2023-04-26T10:47:24.443Z,4.43
2023-04-26T10:49:51.945Z,6.03
2023-04-26T10:52:23.049Z,5.35
2023-04-26T10:54:57.913Z,4.15
2023-04-26T10:57:52.043Z,5.17
2023-04-26T11:00:21.366Z,6.55
2023-04-26T11:03:09.601Z,7.97
2023-04-26T11:05:37.975Z,4.78
2023-04-26T11:08:15.347Z,3.92
2023-04-26T11:10:42.933Z,3.90
2023-04-26T11:13:09.905Z,3.05
2023-04-26T11:15:36.960Z,3.33
2023-04-26T11:18:05.078Z,3.20
2023-04-26T11:20:35.520Z,5.55
2023-04-26T11:23:02.799Z,3.60
2023-04-26T11:25:30.018Z,6.63
2023-04-26T11:28:02.227Z,5.63
2023-04-26T11:30:33.265Z,4.95
2023-04-26T11:33:01.656Z,4.03
2023-04-26T11:35:30.101Z,4.17
2023-04-26T11:38:09.316Z,5.20
2023-04-26T11:40:39.119Z,10.93
2023-04-26T11:43:07.369Z,8.27
2023-04-26T11:45:36.332Z,5.22
2023-04-26T11:48:08.458Z,3.67
2023-04-26T11:50:37.562Z,4.05
2023-04-26T11:53:06.842Z,10.82
2023-04-26T11:55:35.357Z,5.13
2023-04-26T11:58:10.419Z,4.20
2023-04-26T12:00:37.888Z,5.73
2023-04-26T12:03:11.286Z,4.57
2023-04-26T12:05:38.608Z,5.20
2023-04-26T12:08:05.651Z,5.13
2023-04-26T12:10:37.079Z,4.13
2023-04-26T12:13:07.058Z,4.63
2023-04-26T12:15:37.373Z,4.10
2023-04-26T12:18:10.239Z,5.53
2023-04-26T12:20:40.067Z,6.50
2023-04-26T12:23:14.518Z,4.28
2023-04-26T12:25:42.840Z,6.20
2023-04-26T12:28:13.799Z,7.10
2023-04-26T12:30:41.172Z,7.88
2023-04-26T12:33:17.033Z,5.70
2023-04-26T12:35:44.817Z,4.35
2023-04-26T12:38:12.313Z,5.83
2023-04-26T12:40:39.810Z,5.50
2023-04-26T12:43:07.311Z,5.82
2023-04-26T12:45:34.780Z,4.82
2023-04-26T12:48:02.295Z,3.72
2023-04-26T12:50:29.474Z,3.93
2023-04-26T12:52:56.765Z,5.82
2023-04-26T12:55:24.153Z,4.82
2023-04-26T12:57:51.137Z,4.18
2023-04-26T13:00:18.438Z,6.05
2023-04-26T13:02:46.680Z,4.63
2023-04-26T13:05:14.357Z,4.10
2023-04-26T13:07:42.934Z,5.60
2023-04-26T13:10:12.883Z,5.10
2023-04-26T13:12:40.657Z,8.82
2023-04-26T13:15:08.478Z,4.47
2023-04-26T13:17:37.677Z,4.88
2023-04-26T13:20:06.672Z,7.63
2023-04-26T13:22:37.023Z,7.00
2023-04-26T13:25:05.197Z,5.47
2023-04-26T13:27:32.344Z,5.70
2023-04-26T13:29:59.558Z,15.07
2023-04-26T13:32:26.583Z,5.72
2023-04-26T13:34:54.319Z,5.28
2023-04-26T13:37:22.693Z,4.57
2023-04-26T13:39:49.880Z,6.07
2023-04-26T13:42:17.551Z,7.93
2023-04-26T13:44:44.906Z,17.38
2023-04-26T13:47:12.046Z,5.90
2023-04-26T13:49:41.850Z,7.15
2023-04-26T13:52:09.122Z,4.47
2023-04-26T13:54:36.891Z,8.10
2023-04-26T13:57:04.440Z,12.45
2023-04-26T13:59:31.716Z,14.80
2023-04-26T14:01:59.524Z,11.90
2023-04-26T14:04:27.235Z,5.90
2023-04-26T14:06:54.598Z,4.28
2023-04-26T14:09:21.830Z,6.50
2023-04-26T14:11:57.082Z,4.43
2023-04-26T14:14:27.805Z,5.40
2023-04-26T14:16:54.704Z,7.20
2023-04-26T14:19:21.796Z,4.70
2023-04-26T14:21:48.849Z,4.57
2023-04-26T14:24:16.038Z,7.70
2023-04-26T14:26:42.965Z,5.90
2023-04-26T14:29:10.096Z,8.23
2023-04-26T14:31:37.248Z,4.75
2023-04-26T14:34:04.328Z,8.43
2023-04-26T14:36:33.236Z,7.72
2023-04-26T14:39:00.463Z,8.27
2023-04-26T14:41:27.524Z,7.20
2023-04-26T14:43:57.314Z,8.13
2023-04-26T14:46:24.334Z,7.03
2023-04-26T14:53:20.446Z,4.82
2023-04-26T14:55:59.485Z,7.33
2023-04-26T14:58:27.133Z,8.10
2023-04-26T15:00:54.601Z,5.93
2023-04-26T15:07:31.796Z,6.57
2023-04-26T15:14:59.172Z,10.02
2023-04-26T15:17:32.585Z,7.40
2023-04-26T15:20:01.195Z,7.15
2023-04-26T15:22:39.005Z,6.43
2023-04-26T15:25:07.070Z,7.50
2023-04-26T15:27:41.209Z,7.10
2023-04-26T15:30:13.904Z,4.80
2023-04-26T15:32:41.829Z,10.27
2023-04-26T15:35:16.446Z,4.30
2023-04-26T15:37:44.326Z,6.17
2023-04-26T15:40:12.701Z,6.20
2023-04-26T15:47:03.924Z,5.13
2023-04-26T15:49:31.526Z,4.10
2023-04-26T15:51:58.771Z,4.30
2023-04-26T15:54:28.896Z,4.70
2023-04-26T15:56:56.129Z,6.85
2023-04-26T15:59:23.407Z,4.97
2023-04-26T16:01:50.584Z,3.70
2023-04-26T16:04:20.956Z,6.53
2023-04-26T16:06:48.167Z,7.47
2023-04-26T16:09:24.957Z,4.40
2023-04-26T16:11:52.995Z,7.10
2023-04-26T16:14:23.316Z,7.43
2023-04-26T16:16:50.719Z,5.73
2023-04-26T16:19:24.744Z,8.32
2023-04-26T16:29:38.739Z,7.10
2023-04-26T16:47:04.276Z,7.97
2023-04-26T16:56:51.481Z,10.35
2023-04-26T17:03:12.682Z,5.97
2023-04-26T17:09:52.464Z,12.65
2023-04-26T17:12:20.521Z,6.82
2023-04-26T17:14:48.901Z,6.88
2023-04-26T17:17:19.968Z,8.48
2023-04-26T17:19:55.074Z,4.63
2023-04-26T17:32:38.046Z,8.48
2023-04-26T17:35:10.894Z,10.60
2023-04-26T17:38:04.150Z,9.88
2023-04-26T17:40:31.754Z,10.68
2023-04-26T17:43:00.143Z,8.98
2023-04-26T17:45:27.596Z,6.60
2023-04-26T17:47:54.987Z,7.63
2023-04-26T17:50:23.593Z,9.48
2023-04-26T17:52:50.912Z,10.98
2023-04-26T17:55:18.189Z,15.10
2023-04-26T17:57:45.259Z,14.02
2023-04-26T18:00:12.998Z,9.10
2023-04-26T18:02:44.358Z,10.75
2023-04-26T18:05:11.898Z,14.68
2023-04-26T18:07:39.058Z,13.73
2023-04-26T18:10:06.957Z,9.65
2023-04-26T18:12:34.078Z,10.27
2023-04-26T18:15:01.312Z,11.65
2023-04-26T18:17:28.369Z,9.60
2023-04-26T18:19:56.500Z,6.93
2023-04-26T18:22:23.530Z,8.07
2023-04-26T18:24:50.657Z,7.57
2023-04-26T18:27:17.732Z,8.70
2023-04-26T18:29:44.764Z,8.82
2023-04-26T18:32:12.554Z,8.38
2023-04-26T18:34:40.052Z,21.77
2023-04-26T18:37:07.446Z,25.83
2023-04-26T18:39:37.080Z,23.45
2023-04-26T18:42:04.350Z,12.75
2023-04-26T18:44:31.616Z,19.10
2023-04-26T18:46:58.594Z,10.38
2023-04-26T18:49:28.907Z,14.93
2023-04-26T18:51:59.107Z,17.40
2023-04-26T18:54:26.558Z,8.90
2023-04-26T18:56:54.193Z,8.25
2023-04-26T18:59:21.276Z,9.57
2023-04-26T19:01:49.314Z,16.73
2023-04-26T19:04:16.733Z,20.02
2023-04-26T19:06:43.909Z,12.10
2023-04-26T19:09:13.390Z,11.77
2023-04-26T19:11:40.600Z,10.73
2023-04-26T19:14:07.655Z,10.20
2023-04-26T19:16:39.007Z,12.27
2023-04-26T19:19:06.144Z,14.02
2023-04-26T19:21:33.900Z,15.80
2023-04-26T19:24:01.107Z,12.55
2023-04-26T19:26:28.173Z,13.07
2023-04-26T19:28:55.919Z,9.25
2023-04-26T19:31:23.376Z,9.38
2023-04-26T19:33:50.426Z,11.40
2023-04-26T19:36:17.367Z,13.20
2023-04-26T19:38:44.540Z,12.63
2023-04-26T19:41:11.723Z,9.95
2023-04-26T19:43:38.691Z,11.77
2023-04-26T19:46:15.843Z,10.80
2023-04-26T19:48:43.323Z,11.45
2023-04-26T19:51:16.761Z,8.73
2023-04-26T19:53:46.941Z,8.85
2023-04-26T19:56:14.141Z,9.52
2023-04-26T19:58:44.100Z,9.40
2023-04-26T20:01:13.414Z,11.52
2023-04-26T20:03:43.861Z,10.33
2023-04-26T20:06:13.960Z,10.50
2023-04-26T20:08:41.576Z,11.20
2023-04-26T20:11:17.740Z,11.20
2023-04-26T20:13:45.676Z,9.68
2023-04-26T20:16:13.188Z,8.60
2023-04-26T20:18:40.299Z,10.07
2023-04-26T20:21:07.805Z,11.98
2023-04-26T20:23:36.161Z,9.38
2023-04-26T20:26:03.986Z,12.70
2023-04-26T20:28:45.021Z,11.57
2023-04-26T20:31:12.471Z,16.90
2023-04-26T20:33:39.475Z,18.30
2023-04-26T20:36:07.091Z,20.98
2023-04-26T20:38:34.120Z,20.67
2023-04-26T20:41:01.326Z,21.13
2023-04-26T20:43:28.634Z,20.67
2023-04-26T20:45:55.958Z,16.50
2023-04-26T20:48:24.142Z,20.60
2023-04-26T20:50:54.350Z,22.42
2023-04-26T20:53:21.379Z,23.00
2023-04-26T20:55:48.365Z,20.98
2023-04-26T20:58:15.505Z,19.17
2023-04-26T21:00:42.706Z,19.73
2023-04-26T21:03:09.897Z,21.55
2023-04-26T21:05:37.028Z,22.57
2023-04-26T21:08:04.210Z,22.17
2023-04-26T21:10:31.531Z,23.55
2023-04-26T21:12:58.571Z,20.45
2023-04-26T21:15:25.728Z,23.55
2023-04-26T21:17:52.812Z,24.17
2023-04-26T21:20:19.854Z,23.65
2023-04-26T21:22:49.844Z,21.02
2023-04-26T21:25:19.727Z,19.85
2023-04-26T21:27:46.880Z,22.40
2023-04-26T21:30:14.131Z,19.67
2023-04-26T21:32:41.949Z,21.27
2023-04-26T21:35:11.000Z,19.88
2023-04-26T21:37:38.134Z,21.35
2023-04-26T21:40:06.642Z,20.65
2023-04-26T21:42:33.789Z,18.83
2023-04-26T21:45:00.874Z,17.60
2023-04-26T21:47:28.040Z,16.60
2023-04-26T21:49:55.068Z,21.45
2023-04-26T21:52:22.198Z,17.25
2023-04-26T21:54:50.595Z,13.60
2023-04-26T21:57:20.304Z,15.35
2023-04-26T21:59:47.318Z,20.23
2023-04-26T22:02:14.527Z,15.60
2023-04-26T22:04:41.731Z,16.60
2023-04-26T22:07:08.956Z,16.10
2023-04-26T22:09:36.157Z,16.42
2023-04-26T22:12:06.322Z,15.52
2023-04-26T22:14:33.456Z,17.63
2023-04-26T22:17:01.140Z,17.10
2023-04-26T22:19:28.245Z,14.70
2023-04-26T22:21:56.452Z,16.45
2023-04-26T22:24:23.647Z,17.05
2023-04-26T22:26:50.772Z,20.52
2023-04-26T22:29:17.916Z,18.88
2023-04-26T22:31:45.037Z,22.73
2023-04-26T22:34:12.149Z,20.15
2023-04-26T22:36:39.744Z,21.40
2023-04-26T22:39:07.230Z,22.85
2023-04-26T22:41:34.245Z,21.92
2023-04-26T22:44:02.591Z,23.10
2023-04-26T22:46:29.853Z,23.83
2023-04-26T22:48:56.975Z,27.23
2023-04-26T22:51:26.081Z,28.80
2023-04-26T22:53:53.168Z,27.65
2023-04-26T22:56:20.225Z,25.67
2023-04-26T22:58:47.371Z,23.65
2023-04-26T23:01:14.587Z,22.80
2023-04-26T23:03:41.990Z,21.30
2023-04-26T23:06:09.046Z,23.08
2023-04-26T23:08:36.352Z,21.83
2023-04-26T23:11:08.378Z,19.80
2023-04-26T23:13:36.360Z,18.17
2023-04-26T23:16:04.583Z,17.75
2023-04-26T23:18:34.319Z,15.65
2023-04-26T23:21:01.603Z,16.70
2023-04-26T23:23:28.774Z,16.25
2023-04-26T23:25:55.838Z,15.30
2023-04-26T23:28:22.919Z,15.77
2023-04-26T23:30:49.977Z,15.88
2023-04-26T23:33:17.210Z,16.73
2023-04-26T23:35:44.246Z,15.23
2023-04-26T23:38:11.832Z,17.95
2023-04-26T23:40:38.945Z,15.00
2023-04-26T23:43:06.406Z,13.73
2023-04-26T23:45:33.772Z,12.47
2023-04-26T23:48:01.933Z,14.00
2023-04-26T23:50:29.092Z,12.45
2023-04-26T23:52:56.211Z,16.00
2023-04-26T23:55:23.976Z,15.13
2023-04-26T23:57:51.298Z,14.57
